TJIG/SIG METAR and TAF weather

Enter ICAO airport designator
Station Type Date Time Source
TJIG METAR 2019/04/25 17:49 UTC NOAA

TJIG 251749Z 10010KT 10SM SCT045 28/19 A3002


Station Type Date Time Source
TJIG Decoded METAR 2019/04/25 17:49 UTC NOAA

Station name not available
Apr 25, 2019 - 01:49 PM EDT / 2019.04.25 1749 UTC
Wind: from the E (100 degrees) at 12 MPH (10 KT):0
Visibility: 10 mile(s):0
Sky conditions: partly cloudy
Temperature: 82 F (28 C)
Dew Point: 66 F (19 C)
Relative Humidity: 58%
Pressure (altimeter): 30.02 in. Hg (1016 hPa)
ob: TJIG 251749Z 10010KT 10SM SCT045 28/19 A3002
cycle: 18

Station Type Date Time Source
TJIG TAF UTC NOAA

Error!

Example: see airport list